Nearby METAR Reports

 

KMLE - Omaha/Millard, Nebraska, USA
Distance from station: NE 1mi, 2km
Updated: Sun, 26-May-2024 4:15pm CDT
Partly cloudy
Partly cloudy
 Wind from NW
Wind: NW 3 mph, 6 km/h
Temperature: 79°F, 26°C
Dew Point: 59°F, 15°C
Humidity: 51%
Barometer: 29.62 inHg, 1003 hPa
Clouds: Partly cloudy
Visibility: 10 miles, 16 km
Cloud details: Partly cloudy 5000 ft
2024/05/26 21:15 KMLE 262115Z AUTO 31003KT 10SM SCT050 26/15 A2962 RMK AO2 LTG DSNT S T02590147
KOFF - Offutt Afb/Belle, Nebraska, USA
Distance from station: ESE 12mi, 20km
Updated: Sun, 26-May-2024 3:55pm CDT
Few Clouds
Few Clouds
 Wind from W
Wind: W 7 mph, 11 km/h
Temperature: 81°F, 27°C
Heat Index: 81°F, 27°C
Dew Point: 59°F, 15°C
Humidity: 48%
Barometer: 29.60 inHg, 1002.4 hPa
Clouds: Few Clouds
Visibility: 10 miles, 16 km
Cloud details: Few Clouds 5000 ft
Few Clouds 9000 ft
2024/05/26 20:55 KOFF 262055Z 27006KT 10SM FEW050 FEW090 27/15 A2960 RMK AO2A RAB13E22 SLP020 P0000 60000 T02690149 55001 $
 
KOMA - Omaha/Eppley, Nebraska, USA
Distance from station: NE 15mi, 24km
Updated: Sun, 26-May-2024 3:52pm CDT
Mostly cloudy
Mostly cloudy
 Wind from W
Wind: W 6 mph, 9 km/h
Temperature: 79°F, 26°C
Dew Point: 59°F, 15°C
Humidity: 51%
Barometer: 29.61 inHg, 1002.7 hPa
Clouds: Mostly cloudy
Visibility: 10 miles, 16 km
Cloud details: Partly cloudy 4500 ft
Mostly cloudy 14000 ft
Mostly cloudy 20000 ft
2024/05/26 20:52 KOMA 262052Z 28005KT 10SM SCT045 BKN140 BKN200 26/15 A2961 RMK AO2 SLP020 CB DSNT NE MOV SE T02610150 55001
KBTA - Blair Muni, Nebraska, USA
Distance from station: N 16mi, 25km
Updated: Sun, 26-May-2024 4:15pm CDT
Partly cloudy
Partly cloudy
 Wind from calm
Wind: Calm
Temperature: 79°F, 26°C
Dew Point: 59°F, 15°C
Humidity: 51%
Barometer: 29.63 inHg, 1003.4 hPa
Clouds: Partly cloudy
Visibility: 10 miles, 16 km
Cloud details: Partly cloudy 4800 ft
Partly cloudy 8000 ft
Partly cloudy 10000 ft
2024/05/26 21:15 KBTA 262115Z AUTO 00000KT 10SM SCT048 SCT080 SCT100 26/15 A2963 RMK AO2 LTG DSNT NE T02620146
 
KCBF - Council Bluffs, Iowa, USA
Distance from station: ENE 20mi, 32km
Updated: Sun, 26-May-2024 4:15pm CDT
Clear
Clear
 Wind from WNW
Wind: WNW 6 mph, 9 km/h
Temperature: 77°F, 25°C
Dew Point: 61°F, 16°C
Humidity: 57%
Barometer: 29.60 inHg, 1002.4 hPa
Clouds: Clear
Visibility: 10 miles, 16 km
2024/05/26 21:15 KCBF 262115Z AUTO 30005KT 10SM CLR 25/16 A2960 RMK AO2
KPMV - Plattsmouth Muni, Nebraska, USA
Distance from station: SE 20mi, 32km
Updated: Sun, 26-May-2024 4:15pm CDT
Partly cloudy
Partly cloudy
 Wind from NW
Wind: NW 7 mph, 11 km/h
Temperature: 79°F, 26°C
Dew Point: 59°F, 15°C
Humidity: 51%
Barometer: 29.62 inHg, 1003 hPa
Clouds: Partly cloudy
Visibility: 10 miles, 16 km
Cloud details: Partly cloudy 4800 ft
2024/05/26 21:15 KPMV 262115Z AUTO 31006KT 10SM SCT048 26/15 A2962 RMK AO2 LTG DSNT SE AND S T02570146
 
KAHQ - Wahoo, Nebraska, USA
Distance from station: W 25mi, 40km
Updated: Sun, 26-May-2024 4:15pm CDT
Partly cloudy
Partly cloudy
 Wind from NW
Wind: NW 13 mph, 20 km/h
Temperature: 79°F, 26°C
Dew Point: 54°F, 12°C
Humidity: 42%
Barometer: 29.64 inHg, 1003.7 hPa
Clouds: Partly cloudy
Visibility: 10 miles, 16 km
Cloud details: Partly cloudy 10000 ft
2024/05/26 21:15 KAHQ 262115Z AUTO 32011KT 10SM SCT100 26/12 A2964 RMK AO2 T02590122
KFET - Fremont Muni Arp, Nebraska, USA
Distance from station: NW 27mi, 43km
Updated: Sun, 26-May-2024 4:15pm CDT
Partly cloudy
Partly cloudy
 Wind from NW
Wind: NW 6 mph, 9 km/h
Temperature: 79°F, 26°C
Dew Point: 54°F, 12°C
Humidity: 42%
Barometer: 29.64 inHg, 1003.7 hPa
Clouds: Partly cloudy
Visibility: 10 miles, 16 km
Cloud details: Partly cloudy 6000 ft
2024/05/26 21:15 KFET 262115Z AUTO 31005KT 10SM SCT060 26/12 A2964 RMK AO2 T02580121
 
KTQE - Tekamah, Nebraska, USA
Distance from station: N 40mi, 64km
Updated: Sun, 26-May-2024 3:54pm CDT
Mostly cloudy
Mostly cloudy
 Wind from NW
Wind: NW 13 mph, 20 km/h
Temperature: 81°F, 27°C
Heat Index: 82°F, 28°C
Dew Point: 61°F, 16°C
Humidity: 51%
Barometer: 29.61 inHg, 1002.7 hPa
Clouds: Mostly cloudy
Visibility: 10 miles, 16 km
Cloud details: Partly cloudy 5000 ft
Mostly cloudy 7500 ft
Mostly cloudy 10000 ft
2024/05/26 20:54 KTQE 262054Z AUTO 32011KT 10SM SCT050 BKN075 BKN100 27/16 A2961 RMK AO2 LTG DSNT E SLP016 T02670156 55001
KLNK - Lincoln, Nebraska, USA
Distance from station: SW 41mi, 65km
Updated: Sun, 26-May-2024 3:54pm CDT
Few Clouds
Few Clouds
 Wind from NW
Wind: NW 12 mph, 19 km/h, Gust: 20 mph, 31 km/h
Temperature: 81°F, 27°C
Heat Index: 81°F, 27°C
Dew Point: 55°F, 13°C
Humidity: 42%
Barometer: 29.65 inHg, 1004.1 hPa
Clouds: Few Clouds
Visibility: 10 miles, 16 km
Cloud details: Few Clouds 8500 ft
2024/05/26 20:54 KLNK 262054Z 32010G17KT 10SM FEW085 27/13 A2965 RMK AO2 SLP029 T02720128 53003
 
KAFK - Nebraska City, Nebraska, USA
Distance from station: SSE 43mi, 70km
Updated: Sun, 26-May-2024 4:15pm CDT
Thunderstorm, Partly cloudy
Thunderstorm, Partly cloudy
 Wind from N
Wind: N 9 mph, 15 km/h
Temperature: 79°F, 26°C
Dew Point: 61°F, 16°C
Humidity: 54%
Barometer: 29.62 inHg, 1003 hPa
Summary: Thunderstorm
Clouds: Partly cloudy
Visibility: 10 miles, 16 km
Cloud details: Partly cloudy 4600 ft
Partly cloudy 5500 ft
Partly cloudy 7000 ft
2024/05/26 21:15 KAFK 262115Z AUTO 35008KT 320V020 10SM TS SCT046 SCT055 SCT070 26/16 A2962 RMK AO2 T02570160
KRDK - Red Oak, Iowa, USA
Distance from station: ESE 47mi, 75km
Updated: Sun, 26-May-2024 4:15pm CDT
Partly cloudy
Partly cloudy
 Wind from varies
Wind: varies 7 mph, 11 km/h
Temperature: 81°F, 27°C
Heat Index: 82°F, 28°C
Dew Point: 63°F, 17°C
Humidity: 54%
Barometer: 29.61 inHg, 1002.7 hPa
Clouds: Partly cloudy
Visibility: 10 miles, 16 km
Cloud details: Partly cloudy 4600 ft
Partly cloudy 5500 ft
2024/05/26 21:15 KRDK 262115Z AUTO VRB06KT 10SM SCT046 SCT055 27/17 A2961 RMK AO2
 
KSDA - Shenandoah Muni, Iowa, USA
Distance from station: SE 48mi, 77km
Updated: Sun, 26-May-2024 4:15pm CDT
Clear
Clear
 Wind from NW
Wind: NW 6 mph, 9 km/h
Temperature: 77°F, 25°C
Dew Point: 59°F, 15°C
Humidity: 54%
Barometer: 29.60 inHg, 1002.4 hPa
Clouds: Clear
Visibility: 10 miles, 16 km
2024/05/26 21:15 KSDA 262115Z AUTO 32005KT 10SM CLR 25/15 A2960 RMK AO2
KHNR - Harlan Muni, Iowa, USA
Distance from station: NE 49mi, 80km
Updated: Sun, 26-May-2024 4:15pm CDT
Mostly cloudy
Mostly cloudy
 Wind from NNW
Wind: NNW 7 mph, 11 km/h, Gust: 13 mph, 20 km/h
Temperature: 77°F, 25°C
Dew Point: 59°F, 15°C
Humidity: 54%
Barometer: 29.62 inHg, 1003 hPa
Clouds: Mostly cloudy
Visibility: 10 miles, 16 km
Cloud details: Few Clouds 5000 ft
Mostly cloudy 6000 ft
2024/05/26 21:15 KHNR 262115Z AUTO 33006G11KT 10SM FEW050 BKN060 25/15 A2962 RMK A01